sensor_id;sensor_type;location;lat;lon;timestamp;P1;durP1;ratioP1;P2;durP2;ratioP2
24143;SDS011;12307;50.828;6.080;2023-09-19T00:00:22;1.42;;;1.10;;
24143;SDS011;12307;50.828;6.080;2023-09-19T00:02:52;1.67;;;1.30;;
24143;SDS011;12307;50.828;6.080;2023-09-19T00:05:19;0.95;;;0.82;;
24143;SDS011;12307;50.828;6.080;2023-09-19T00:07:49;0.95;;;0.95;;
24143;SDS011;12307;50.828;6.080;2023-09-19T00:10:16;1.13;;;1.02;;
24143;SDS011;12307;50.828;6.080;2023-09-19T00:12:42;1.38;;;1.10;;
24143;SDS011;12307;50.828;6.080;2023-09-19T00:15:08;1.20;;;0.90;;
24143;SDS011;12307;50.828;6.080;2023-09-19T00:17:35;1.20;;;1.10;;
24143;SDS011;12307;50.828;6.080;2023-09-19T00:20:03;1.58;;;1.10;;
24143;SDS011;12307;50.828;6.080;2023-09-19T00:22:40;1.10;;;1.00;;
24143;SDS011;12307;50.828;6.080;2023-09-19T00:25:06;1.02;;;0.93;;
24143;SDS011;12307;50.828;6.080;2023-09-19T00:27:33;1.17;;;0.95;;
24143;SDS011;12307;50.828;6.080;2023-09-19T00:29:59;1.27;;;0.93;;
24143;SDS011;12307;50.828;6.080;2023-09-19T00:32:25;1.33;;;1.00;;
24143;SDS011;12307;50.828;6.080;2023-09-19T00:34:57;1.20;;;1.10;;
24143;SDS011;12307;50.828;6.080;2023-09-19T00:37:23;1.52;;;1.00;;
24143;SDS011;12307;50.828;6.080;2023-09-19T00:39:50;1.67;;;1.20;;
24143;SDS011;12307;50.828;6.080;2023-09-19T00:42:17;1.02;;;0.90;;
24143;SDS011;12307;50.828;6.080;2023-09-19T00:44:45;1.17;;;1.08;;
24143;SDS011;12307;50.828;6.080;2023-09-19T00:47:11;1.25;;;1.10;;
24143;SDS011;12307;50.828;6.080;2023-09-19T00:49:41;1.85;;;1.00;;
24143;SDS011;12307;50.828;6.080;2023-09-19T00:52:07;1.10;;;0.90;;
24143;SDS011;12307;50.828;6.080;2023-09-19T00:54:35;1.25;;;1.00;;
24143;SDS011;12307;50.828;6.080;2023-09-19T00:57:03;1.27;;;1.05;;
24143;SDS011;12307;50.828;6.080;2023-09-19T00:59:29;1.10;;;1.00;;
24143;SDS011;12307;50.828;6.080;2023-09-19T01:01:55;1.30;;;1.10;;
24143;SDS011;12307;50.828;6.080;2023-09-19T01:04:21;1.15;;;1.05;;
24143;SDS011;12307;50.828;6.080;2023-09-19T01:06:48;1.23;;;1.13;;
24143;SDS011;12307;50.828;6.080;2023-09-19T01:09:18;1.75;;;1.20;;
24143;SDS011;12307;50.828;6.080;2023-09-19T01:11:43;1.23;;;1.10;;
24143;SDS011;12307;50.828;6.080;2023-09-19T01:14:15;2.67;;;1.13;;
24143;SDS011;12307;50.828;6.080;2023-09-19T01:16:53;1.73;;;1.13;;
24143;SDS011;12307;50.828;6.080;2023-09-19T01:22:41;1.08;;;1.00;;
24143;SDS011;12307;50.828;6.080;2023-09-19T01:28:06;1.55;;;1.20;;
24143;SDS011;12307;50.828;6.080;2023-09-19T01:30:43;1.20;;;1.10;;
24143;SDS011;12307;50.828;6.080;2023-09-19T01:33:11;1.17;;;0.93;;
24143;SDS011;12307;50.828;6.080;2023-09-19T01:35:37;1.25;;;1.10;;
24143;SDS011;12307;50.828;6.080;2023-09-19T01:38:04;1.23;;;1.00;;
24143;SDS011;12307;50.828;6.080;2023-09-19T01:40:29;1.42;;;0.80;;
24143;SDS011;12307;50.828;6.080;2023-09-19T01:42:57;1.20;;;1.10;;
24143;SDS011;12307;50.828;6.080;2023-09-19T01:45:26;1.27;;;1.08;;
24143;SDS011;12307;50.828;6.080;2023-09-19T01:48:02;1.20;;;1.10;;
24143;SDS011;12307;50.828;6.080;2023-09-19T01:50:46;1.13;;;1.02;;
24143;SDS011;12307;50.828;6.080;2023-09-19T01:53:21;1.20;;;1.05;;
24143;SDS011;12307;50.828;6.080;2023-09-19T01:55:53;2.55;;;1.00;;
24143;SDS011;12307;50.828;6.080;2023-09-19T01:58:21;1.75;;;1.30;;
24143;SDS011;12307;50.828;6.080;2023-09-19T02:00:52;1.30;;;1.00;;
24143;SDS011;12307;50.828;6.080;2023-09-19T02:03:22;1.27;;;0.90;;
24143;SDS011;12307;50.828;6.080;2023-09-19T02:05:50;1.48;;;1.10;;
24143;SDS011;12307;50.828;6.080;2023-09-19T02:08:16;0.90;;;0.90;;
24143;SDS011;12307;50.828;6.080;2023-09-19T02:10:44;1.27;;;1.10;;
24143;SDS011;12307;50.828;6.080;2023-09-19T02:13:14;1.52;;;1.20;;
24143;SDS011;12307;50.828;6.080;2023-09-19T02:15:41;1.00;;;0.80;;
24143;SDS011;12307;50.828;6.080;2023-09-19T02:18:06;1.48;;;1.17;;
24143;SDS011;12307;50.828;6.080;2023-09-19T02:20:33;1.38;;;1.10;;
24143;SDS011;12307;50.828;6.080;2023-09-19T02:22:59;1.30;;;1.00;;
24143;SDS011;12307;50.828;6.080;2023-09-19T02:25:25;1.33;;;0.95;;
24143;SDS011;12307;50.828;6.080;2023-09-19T02:27:52;1.42;;;1.08;;
24143;SDS011;12307;50.828;6.080;2023-09-19T02:30:19;1.38;;;0.98;;
24143;SDS011;12307;50.828;6.080;2023-09-19T02:32:48;1.48;;;0.93;;
24143;SDS011;12307;50.828;6.080;2023-09-19T02:35:14;1.33;;;1.00;;
24143;SDS011;12307;50.828;6.080;2023-09-19T02:37:46;1.10;;;1.00;;
24143;SDS011;12307;50.828;6.080;2023-09-19T02:40:11;1.65;;;1.10;;
24143;SDS011;12307;50.828;6.080;2023-09-19T02:42:47;1.42;;;0.98;;
24143;SDS011;12307;50.828;6.080;2023-09-19T02:45:15;1.40;;;1.02;;
24143;SDS011;12307;50.828;6.080;2023-09-19T02:47:42;1.20;;;0.85;;
24143;SDS011;12307;50.828;6.080;2023-09-19T02:50:08;1.45;;;1.15;;
24143;SDS011;12307;50.828;6.080;2023-09-19T02:52:37;1.42;;;0.90;;
24143;SDS011;12307;50.828;6.080;2023-09-19T02:55:05;2.03;;;1.00;;
24143;SDS011;12307;50.828;6.080;2023-09-19T02:57:31;1.55;;;1.08;;
24143;SDS011;12307;50.828;6.080;2023-09-19T02:59:58;1.10;;;0.90;;
24143;SDS011;12307;50.828;6.080;2023-09-19T03:02:25;1.25;;;0.90;;
24143;SDS011;12307;50.828;6.080;2023-09-19T03:04:52;1.30;;;0.90;;
24143;SDS011;12307;50.828;6.080;2023-09-19T03:07:18;1.67;;;1.10;;
24143;SDS011;12307;50.828;6.080;2023-09-19T03:09:44;1.13;;;1.02;;
24143;SDS011;12307;50.828;6.080;2023-09-19T03:12:11;1.63;;;1.10;;
24143;SDS011;12307;50.828;6.080;2023-09-19T03:14:41;1.17;;;1.00;;
24143;SDS011;12307;50.828;6.080;2023-09-19T03:17:07;1.10;;;0.75;;
24143;SDS011;12307;50.828;6.080;2023-09-19T03:19:34;1.50;;;0.98;;
24143;SDS011;12307;50.828;6.080;2023-09-19T03:21:59;1.38;;;1.10;;
24143;SDS011;12307;50.828;6.080;2023-09-19T03:24:25;1.38;;;1.00;;
24143;SDS011;12307;50.828;6.080;2023-09-19T03:26:51;0.95;;;0.90;;
24143;SDS011;12307;50.828;6.080;2023-09-19T03:29:18;1.80;;;1.00;;
24143;SDS011;12307;50.828;6.080;2023-09-19T03:31:44;1.40;;;1.20;;
24143;SDS011;12307;50.828;6.080;2023-09-19T03:34:10;0.98;;;0.88;;
24143;SDS011;12307;50.828;6.080;2023-09-19T03:36:36;1.40;;;1.00;;
24143;SDS011;12307;50.828;6.080;2023-09-19T03:39:02;1.10;;;0.90;;
24143;SDS011;12307;50.828;6.080;2023-09-19T03:41:30;1.10;;;1.00;;
24143;SDS011;12307;50.828;6.080;2023-09-19T03:43:56;1.30;;;1.00;;
24143;SDS011;12307;50.828;6.080;2023-09-19T03:46:23;1.10;;;1.00;;
24143;SDS011;12307;50.828;6.080;2023-09-19T03:48:49;1.15;;;1.00;;
24143;SDS011;12307;50.828;6.080;2023-09-19T03:51:15;1.23;;;0.93;;
24143;SDS011;12307;50.828;6.080;2023-09-19T03:53:41;1.27;;;1.00;;
24143;SDS011;12307;50.828;6.080;2023-09-19T03:56:07;1.27;;;1.00;;
24143;SDS011;12307;50.828;6.080;2023-09-19T03:58:33;0.98;;;0.88;;
24143;SDS011;12307;50.828;6.080;2023-09-19T04:01:03;1.10;;;1.00;;
24143;SDS011;12307;50.828;6.080;2023-09-19T04:03:30;0.98;;;0.80;;
24143;SDS011;12307;50.828;6.080;2023-09-19T04:06:10;1.17;;;1.08;;
24143;SDS011;12307;50.828;6.080;2023-09-19T04:08:36;1.33;;;1.00;;
24143;SDS011;12307;50.828;6.080;2023-09-19T04:11:01;1.30;;;0.93;;
24143;SDS011;12307;50.828;6.080;2023-09-19T04:13:27;2.15;;;1.10;;
24143;SDS011;12307;50.828;6.080;2023-09-19T04:15:53;1.42;;;0.90;;
24143;SDS011;12307;50.828;6.080;2023-09-19T04:18:19;1.08;;;0.98;;
24143;SDS011;12307;50.828;6.080;2023-09-19T04:20:48;1.33;;;1.02;;
24143;SDS011;12307;50.828;6.080;2023-09-19T04:23:14;1.48;;;1.00;;
24143;SDS011;12307;50.828;6.080;2023-09-19T04:25:40;1.52;;;0.90;;
24143;SDS011;12307;50.828;6.080;2023-09-19T04:28:06;1.35;;;1.05;;
24143;SDS011;12307;50.828;6.080;2023-09-19T04:30:31;1.33;;;0.85;;
24143;SDS011;12307;50.828;6.080;2023-09-19T04:32:57;1.63;;;1.10;;
24143;SDS011;12307;50.828;6.080;2023-09-19T04:35:24;1.17;;;0.93;;
24143;SDS011;12307;50.828;6.080;2023-09-19T04:37:53;1.42;;;1.00;;
24143;SDS011;12307;50.828;6.080;2023-09-19T04:40:19;1.08;;;0.90;;
24143;SDS011;12307;50.828;6.080;2023-09-19T04:42:45;1.95;;;1.00;;
24143;SDS011;12307;50.828;6.080;2023-09-19T04:45:21;1.60;;;1.10;;
24143;SDS011;12307;50.828;6.080;2023-09-19T04:47:47;1.38;;;0.85;;
24143;SDS011;12307;50.828;6.080;2023-09-19T04:50:13;2.42;;;1.10;;
24143;SDS011;12307;50.828;6.080;2023-09-19T04:52:39;1.52;;;0.93;;
24143;SDS011;12307;50.828;6.080;2023-09-19T04:55:08;1.20;;;0.90;;
24143;SDS011;12307;50.828;6.080;2023-09-19T04:57:34;1.30;;;0.93;;
24143;SDS011;12307;50.828;6.080;2023-09-19T05:00:01;1.10;;;0.90;;
24143;SDS011;12307;50.828;6.080;2023-09-19T05:02:32;1.50;;;0.90;;
24143;SDS011;12307;50.828;6.080;2023-09-19T05:04:59;0.93;;;0.70;;
24143;SDS011;12307;50.828;6.080;2023-09-19T05:07:25;1.38;;;1.02;;
24143;SDS011;12307;50.828;6.080;2023-09-19T05:09:51;1.40;;;0.93;;
24143;SDS011;12307;50.828;6.080;2023-09-19T05:12:18;1.38;;;0.93;;
24143;SDS011;12307;50.828;6.080;2023-09-19T05:14:44;1.13;;;0.90;;
24143;SDS011;12307;50.828;6.080;2023-09-19T05:17:10;1.20;;;0.90;;
24143;SDS011;12307;50.828;6.080;2023-09-19T05:19:36;2.60;;;1.13;;
24143;SDS011;12307;50.828;6.080;2023-09-19T05:22:03;1.45;;;1.10;;
24143;SDS011;12307;50.828;6.080;2023-09-19T05:24:29;1.13;;;0.90;;
24143;SDS011;12307;50.828;6.080;2023-09-19T05:26:55;1.45;;;0.80;;
24143;SDS011;12307;50.828;6.080;2023-09-19T05:29:23;1.70;;;1.02;;
24143;SDS011;12307;50.828;6.080;2023-09-19T05:31:49;1.30;;;0.98;;
24143;SDS011;12307;50.828;6.080;2023-09-19T05:34:16;1.02;;;0.82;;
24143;SDS011;12307;50.828;6.080;2023-09-19T05:36:42;1.85;;;1.10;;
24143;SDS011;12307;50.828;6.080;2023-09-19T05:39:08;2.03;;;1.02;;
24143;SDS011;12307;50.828;6.080;2023-09-19T05:41:34;1.35;;;1.15;;
24143;SDS011;12307;50.828;6.080;2023-09-19T05:44:02;1.05;;;0.90;;
24143;SDS011;12307;50.828;6.080;2023-09-19T05:46:29;1.45;;;0.90;;
24143;SDS011;12307;50.828;6.080;2023-09-19T05:48:55;1.40;;;0.98;;
24143;SDS011;12307;50.828;6.080;2023-09-19T05:51:21;1.13;;;0.90;;
24143;SDS011;12307;50.828;6.080;2023-09-19T05:53:47;0.95;;;0.85;;
24143;SDS011;12307;50.828;6.080;2023-09-19T05:56:13;0.98;;;0.90;;
24143;SDS011;12307;50.828;6.080;2023-09-19T05:58:40;1.05;;;0.80;;
24143;SDS011;12307;50.828;6.080;2023-09-19T06:01:07;1.33;;;0.88;;
24143;SDS011;12307;50.828;6.080;2023-09-19T06:03:35;1.38;;;1.00;;
24143;SDS011;12307;50.828;6.080;2023-09-19T06:06:01;1.55;;;1.30;;
24143;SDS011;12307;50.828;6.080;2023-09-19T06:08:27;1.90;;;1.00;;
24143;SDS011;12307;50.828;6.080;2023-09-19T06:10:54;1.95;;;1.10;;
24143;SDS011;12307;50.828;6.080;2023-09-19T06:13:19;1.00;;;0.80;;
24143;SDS011;12307;50.828;6.080;2023-09-19T06:15:45;1.25;;;1.05;;
24143;SDS011;12307;50.828;6.080;2023-09-19T06:18:12;1.20;;;0.90;;
24143;SDS011;12307;50.828;6.080;2023-09-19T06:20:45;1.48;;;1.15;;
24143;SDS011;12307;50.828;6.080;2023-09-19T06:23:11;1.52;;;0.88;;
24143;SDS011;12307;50.828;6.080;2023-09-19T06:25:37;1.77;;;0.98;;
24143;SDS011;12307;50.828;6.080;2023-09-19T06:28:04;1.85;;;1.00;;
24143;SDS011;12307;50.828;6.080;2023-09-19T06:30:30;1.30;;;0.90;;
24143;SDS011;12307;50.828;6.080;2023-09-19T06:32:57;1.13;;;0.80;;
24143;SDS011;12307;50.828;6.080;2023-09-19T06:35:23;1.23;;;1.08;;
24143;SDS011;12307;50.828;6.080;2023-09-19T06:37:52;1.30;;;0.90;;
24143;SDS011;12307;50.828;6.080;2023-09-19T06:40:18;1.27;;;0.90;;
24143;SDS011;12307;50.828;6.080;2023-09-19T06:42:45;1.40;;;0.90;;
24143;SDS011;12307;50.828;6.080;2023-09-19T06:45:12;0.80;;;0.68;;
24143;SDS011;12307;50.828;6.080;2023-09-19T06:47:38;0.85;;;0.70;;
24143;SDS011;12307;50.828;6.080;2023-09-19T06:50:04;1.73;;;0.93;;
24143;SDS011;12307;50.828;6.080;2023-09-19T06:52:34;1.92;;;0.90;;
24143;SDS011;12307;50.828;6.080;2023-09-19T06:55:01;1.27;;;0.80;;
24143;SDS011;12307;50.828;6.080;2023-09-19T06:57:28;0.70;;;0.68;;
24143;SDS011;12307;50.828;6.080;2023-09-19T06:59:55;0.90;;;0.77;;
24143;SDS011;12307;50.828;6.080;2023-09-19T07:02:21;1.50;;;0.90;;
24143;SDS011;12307;50.828;6.080;2023-09-19T07:04:47;1.10;;;0.90;;
24143;SDS011;12307;50.828;6.080;2023-09-19T07:07:14;2.50;;;0.73;;
24143;SDS011;12307;50.828;6.080;2023-09-19T07:09:40;1.27;;;0.82;;
24143;SDS011;12307;50.828;6.080;2023-09-19T07:12:08;1.30;;;0.77;;
24143;SDS011;12307;50.828;6.080;2023-09-19T07:14:34;1.00;;;0.80;;
24143;SDS011;12307;50.828;6.080;2023-09-19T07:17:00;0.90;;;0.80;;
24143;SDS011;12307;50.828;6.080;2023-09-19T07:19:26;1.00;;;0.90;;
24143;SDS011;12307;50.828;6.080;2023-09-19T07:21:56;1.67;;;0.90;;
24143;SDS011;12307;50.828;6.080;2023-09-19T07:24:24;1.38;;;0.93;;
24143;SDS011;12307;50.828;6.080;2023-09-19T07:26:52;1.98;;;1.05;;
24143;SDS011;12307;50.828;6.080;2023-09-19T07:29:19;1.10;;;0.80;;
24143;SDS011;12307;50.828;6.080;2023-09-19T07:31:45;1.50;;;0.93;;
24143;SDS011;12307;50.828;6.080;2023-09-19T07:34:12;1.40;;;0.90;;
24143;SDS011;12307;50.828;6.080;2023-09-19T07:36:39;1.33;;;0.90;;
24143;SDS011;12307;50.828;6.080;2023-09-19T07:39:04;2.47;;;1.10;;
24143;SDS011;12307;50.828;6.080;2023-09-19T07:41:32;1.77;;;1.15;;
24143;SDS011;12307;50.828;6.080;2023-09-19T07:43:57;1.30;;;1.00;;
24143;SDS011;12307;50.828;6.080;2023-09-19T07:46:24;1.15;;;0.80;;
24143;SDS011;12307;50.828;6.080;2023-09-19T07:48:51;0.90;;;0.80;;
24143;SDS011;12307;50.828;6.080;2023-09-19T07:51:17;1.20;;;0.80;;
24143;SDS011;12307;50.828;6.080;2023-09-19T07:53:42;1.15;;;0.90;;
24143;SDS011;12307;50.828;6.080;2023-09-19T07:56:09;2.65;;;1.10;;
24143;SDS011;12307;50.828;6.080;2023-09-19T07:58:35;1.85;;;1.08;;
24143;SDS011;12307;50.828;6.080;2023-09-19T08:01:02;0.85;;;0.70;;
24143;SDS011;12307;50.828;6.080;2023-09-19T08:03:30;1.35;;;0.90;;
24143;SDS011;12307;50.828;6.080;2023-09-19T08:05:56;0.90;;;0.60;;
24143;SDS011;12307;50.828;6.080;2023-09-19T08:08:22;1.83;;;0.80;;
24143;SDS011;12307;50.828;6.080;2023-09-19T08:10:52;1.88;;;1.00;;
24143;SDS011;12307;50.828;6.080;2023-09-19T08:13:18;1.35;;;0.82;;
24143;SDS011;12307;50.828;6.080;2023-09-19T08:15:44;2.17;;;0.85;;
24143;SDS011;12307;50.828;6.080;2023-09-19T08:18:10;1.40;;;0.68;;
24143;SDS011;12307;50.828;6.080;2023-09-19T08:20:38;2.15;;;0.70;;
24143;SDS011;12307;50.828;6.080;2023-09-19T08:23:07;1.15;;;0.80;;
24143;SDS011;12307;50.828;6.080;2023-09-19T08:25:33;1.38;;;0.70;;
24143;SDS011;12307;50.828;6.080;2023-09-19T08:27:59;1.60;;;0.98;;
24143;SDS011;12307;50.828;6.080;2023-09-19T08:30:27;1.45;;;0.80;;
24143;SDS011;12307;50.828;6.080;2023-09-19T08:32:56;1.20;;;0.88;;
24143;SDS011;12307;50.828;6.080;2023-09-19T08:35:23;1.50;;;0.90;;
24143;SDS011;12307;50.828;6.080;2023-09-19T08:37:50;1.33;;;0.80;;
24143;SDS011;12307;50.828;6.080;2023-09-19T08:40:16;1.13;;;0.80;;
24143;SDS011;12307;50.828;6.080;2023-09-19T08:42:49;0.75;;;0.65;;
24143;SDS011;12307;50.828;6.080;2023-09-19T08:45:15;1.63;;;0.98;;
24143;SDS011;12307;50.828;6.080;2023-09-19T08:47:43;1.23;;;0.85;;
24143;SDS011;12307;50.828;6.080;2023-09-19T08:50:14;1.10;;;0.80;;
24143;SDS011;12307;50.828;6.080;2023-09-19T08:52:44;1.60;;;0.73;;
24143;SDS011;12307;50.828;6.080;2023-09-19T08:55:18;1.55;;;1.00;;
24143;SDS011;12307;50.828;6.080;2023-09-19T08:57:47;1.30;;;0.73;;
24143;SDS011;12307;50.828;6.080;2023-09-19T09:00:15;2.30;;;1.00;;
24143;SDS011;12307;50.828;6.080;2023-09-19T09:02:46;0.93;;;0.65;;
24143;SDS011;12307;50.828;6.080;2023-09-19T09:05:14;1.55;;;0.90;;
24143;SDS011;12307;50.828;6.080;2023-09-19T09:07:41;1.23;;;0.75;;
24143;SDS011;12307;50.828;6.080;2023-09-19T09:10:10;1.45;;;0.88;;
24143;SDS011;12307;50.828;6.080;2023-09-19T09:12:36;2.00;;;0.85;;
24143;SDS011;12307;50.828;6.080;2023-09-19T09:15:05;2.28;;;0.80;;
24143;SDS011;12307;50.828;6.080;2023-09-19T09:17:31;1.73;;;0.80;;
24143;SDS011;12307;50.828;6.080;2023-09-19T09:19:57;1.88;;;1.10;;
24143;SDS011;12307;50.828;6.080;2023-09-19T09:22:23;1.60;;;0.80;;
24143;SDS011;12307;50.828;6.080;2023-09-19T09:24:52;1.98;;;0.93;;
24143;SDS011;12307;50.828;6.080;2023-09-19T09:27:20;1.65;;;1.00;;
24143;SDS011;12307;50.828;6.080;2023-09-19T09:29:49;1.67;;;0.98;;
24143;SDS011;12307;50.828;6.080;2023-09-19T09:32:16;1.60;;;0.90;;
24143;SDS011;12307;50.828;6.080;2023-09-19T09:34:44;1.92;;;1.00;;
24143;SDS011;12307;50.828;6.080;2023-09-19T09:37:12;1.85;;;0.80;;
24143;SDS011;12307;50.828;6.080;2023-09-19T09:39:40;1.67;;;0.90;;
24143;SDS011;12307;50.828;6.080;2023-09-19T09:42:14;1.85;;;1.08;;
24143;SDS011;12307;50.828;6.080;2023-09-19T09:45:12;2.03;;;1.05;;
24143;SDS011;12307;50.828;6.080;2023-09-19T09:47:43;2.10;;;1.00;;
24143;SDS011;12307;50.828;6.080;2023-09-19T09:50:27;2.75;;;1.10;;
24143;SDS011;12307;50.828;6.080;2023-09-19T09:53:22;2.05;;;1.02;;
24143;SDS011;12307;50.828;6.080;2023-09-19T09:55:57;1.48;;;0.93;;
24143;SDS011;12307;50.828;6.080;2023-09-19T09:58:28;1.70;;;0.88;;
24143;SDS011;12307;50.828;6.080;2023-09-19T10:00:54;2.58;;;1.20;;
24143;SDS011;12307;50.828;6.080;2023-09-19T10:03:30;3.42;;;1.30;;
24143;SDS011;12307;50.828;6.080;2023-09-19T10:05:58;2.42;;;1.10;;
24143;SDS011;12307;50.828;6.080;2023-09-19T10:08:33;1.92;;;0.90;;
24143;SDS011;12307;50.828;6.080;2023-09-19T10:11:00;1.70;;;1.05;;
24143;SDS011;12307;50.828;6.080;2023-09-19T10:13:41;2.25;;;1.10;;
24143;SDS011;12307;50.828;6.080;2023-09-19T10:16:11;2.35;;;1.20;;
24143;SDS011;12307;50.828;6.080;2023-09-19T10:18:39;2.00;;;1.20;;
24143;SDS011;12307;50.828;6.080;2023-09-19T10:21:09;2.42;;;1.20;;
24143;SDS011;12307;50.828;6.080;2023-09-19T10:23:35;2.88;;;1.27;;
24143;SDS011;12307;50.828;6.080;2023-09-19T10:26:02;3.20;;;1.38;;
24143;SDS011;12307;50.828;6.080;2023-09-19T10:28:30;2.00;;;1.17;;
24143;SDS011;12307;50.828;6.080;2023-09-19T10:30:58;2.80;;;1.20;;
24143;SDS011;12307;50.828;6.080;2023-09-19T10:33:25;3.10;;;1.38;;
24143;SDS011;12307;50.828;6.080;2023-09-19T10:35:51;2.30;;;1.20;;
24143;SDS011;12307;50.828;6.080;2023-09-19T10:38:22;1.85;;;1.20;;
24143;SDS011;12307;50.828;6.080;2023-09-19T10:40:49;1.83;;;1.10;;
24143;SDS011;12307;50.828;6.080;2023-09-19T10:43:17;1.38;;;0.95;;
24143;SDS011;12307;50.828;6.080;2023-09-19T10:45:43;2.08;;;1.17;;
24143;SDS011;12307;50.828;6.080;2023-09-19T10:48:11;1.85;;;0.93;;
24143;SDS011;12307;50.828;6.080;2023-09-19T10:50:41;2.95;;;1.35;;
24143;SDS011;12307;50.828;6.080;2023-09-19T10:53:10;3.05;;;1.38;;
24143;SDS011;12307;50.828;6.080;2023-09-19T10:55:38;1.88;;;1.30;;
24143;SDS011;12307;50.828;6.080;2023-09-19T10:58:05;2.13;;;1.20;;
24143;SDS011;12307;50.828;6.080;2023-09-19T11:00:50;1.65;;;1.00;;
24143;SDS011;12307;50.828;6.080;2023-09-19T11:03:20;3.40;;;1.20;;
24143;SDS011;12307;50.828;6.080;2023-09-19T11:06:01;1.95;;;1.27;;
24143;SDS011;12307;50.828;6.080;2023-09-19T11:08:57;3.03;;;1.42;;
24143;SDS011;12307;50.828;6.080;2023-09-19T11:11:41;2.97;;;1.30;;
24143;SDS011;12307;50.828;6.080;2023-09-19T11:14:14;2.33;;;1.40;;
24143;SDS011;12307;50.828;6.080;2023-09-19T11:25:55;1.85;;;1.20;;
24143;SDS011;12307;50.828;6.080;2023-09-19T11:28:28;2.88;;;1.42;;
24143;SDS011;12307;50.828;6.080;2023-09-19T11:40:26;2.67;;;1.35;;
24143;SDS011;12307;50.828;6.080;2023-09-19T11:42:53;2.13;;;1.13;;
24143;SDS011;12307;50.828;6.080;2023-09-19T11:48:23;2.13;;;1.20;;
24143;SDS011;12307;50.828;6.080;2023-09-19T11:50:52;2.25;;;1.20;;
24143;SDS011;12307;50.828;6.080;2023-09-19T11:53:18;2.03;;;1.20;;
24143;SDS011;12307;50.828;6.080;2023-09-19T11:55:47;2.63;;;1.45;;
24143;SDS011;12307;50.828;6.080;2023-09-19T11:58:15;2.28;;;1.30;;
24143;SDS011;12307;50.828;6.080;2023-09-19T12:00:42;2.55;;;1.23;;
24143;SDS011;12307;50.828;6.080;2023-09-19T12:03:10;2.38;;;1.20;;
24143;SDS011;12307;50.828;6.080;2023-09-19T12:05:37;2.35;;;1.10;;
24143;SDS011;12307;50.828;6.080;2023-09-19T12:08:03;1.95;;;1.02;;
24143;SDS011;12307;50.828;6.080;2023-09-19T12:10:30;2.70;;;1.20;;
24143;SDS011;12307;50.828;6.080;2023-09-19T12:12:57;1.67;;;1.13;;
24143;SDS011;12307;50.828;6.080;2023-09-19T12:15:24;1.38;;;1.10;;
24143;SDS011;12307;50.828;6.080;2023-09-19T12:17:59;2.65;;;1.25;;
24143;SDS011;12307;50.828;6.080;2023-09-19T12:20:25;1.65;;;1.08;;
24143;SDS011;12307;50.828;6.080;2023-09-19T12:23:06;2.55;;;1.30;;
24143;SDS011;12307;50.828;6.080;2023-09-19T12:25:41;2.17;;;1.38;;
24143;SDS011;12307;50.828;6.080;2023-09-19T12:28:12;1.45;;;0.95;;
24143;SDS011;12307;50.828;6.080;2023-09-19T12:30:38;2.17;;;1.23;;
24143;SDS011;12307;50.828;6.080;2023-09-19T12:33:13;1.75;;;0.93;;
24143;SDS011;12307;50.828;6.080;2023-09-19T12:35:41;2.42;;;1.10;;
24143;SDS011;12307;50.828;6.080;2023-09-19T12:38:08;1.98;;;1.10;;
24143;SDS011;12307;50.828;6.080;2023-09-19T12:40:35;1.58;;;1.10;;
24143;SDS011;12307;50.828;6.080;2023-09-19T12:43:03;1.73;;;1.00;;
24143;SDS011;12307;50.828;6.080;2023-09-19T12:45:31;2.10;;;1.08;;
24143;SDS011;12307;50.828;6.080;2023-09-19T12:48:19;1.90;;;0.90;;
24143;SDS011;12307;50.828;6.080;2023-09-19T12:50:59;1.42;;;0.90;;
24143;SDS011;12307;50.828;6.080;2023-09-19T12:53:32;1.48;;;0.88;;
24143;SDS011;12307;50.828;6.080;2023-09-19T12:56:01;1.38;;;0.90;;
24143;SDS011;12307;50.828;6.080;2023-09-19T12:58:30;2.10;;;0.88;;
24143;SDS011;12307;50.828;6.080;2023-09-19T13:00:58;1.50;;;1.00;;
24143;SDS011;12307;50.828;6.080;2023-09-19T13:03:25;1.30;;;0.90;;
24143;SDS011;12307;50.828;6.080;2023-09-19T13:05:53;2.80;;;0.90;;
24143;SDS011;12307;50.828;6.080;2023-09-19T13:08:24;1.65;;;0.70;;
24143;SDS011;12307;50.828;6.080;2023-09-19T13:11:03;1.08;;;0.77;;
24143;SDS011;12307;50.828;6.080;2023-09-19T13:13:40;1.25;;;0.80;;
24143;SDS011;12307;50.828;6.080;2023-09-19T13:16:11;1.08;;;0.52;;
24143;SDS011;12307;50.828;6.080;2023-09-19T16:10:46;0.55;;;0.38;;
24143;SDS011;12307;50.828;6.080;2023-09-19T19:13:23;0.73;;;0.40;;
24143;SDS011;12307;50.828;6.080;2023-09-19T19:15:49;1.10;;;0.60;;
24143;SDS011;12307;50.828;6.080;2023-09-19T19:57:43;0.80;;;0.60;;
24143;SDS011;12307;50.828;6.080;2023-09-19T20:00:09;0.82;;;0.70;;
24143;SDS011;12307;50.828;6.080;2023-09-19T20:02:36;1.13;;;0.60;;
24143;SDS011;12307;50.828;6.080;2023-09-19T20:05:02;0.65;;;0.50;;
24143;SDS011;12307;50.828;6.080;2023-09-19T20:07:31;1.02;;;0.50;;
24143;SDS011;12307;50.828;6.080;2023-09-19T20:09:57;1.10;;;0.50;;
24143;SDS011;12307;50.828;6.080;2023-09-19T20:12:23;1.17;;;0.63;;
24143;SDS011;12307;50.828;6.080;2023-09-19T20:14:51;0.85;;;0.57;;
24143;SDS011;12307;50.828;6.080;2023-09-19T20:17:17;0.65;;;0.45;;
24143;SDS011;12307;50.828;6.080;2023-09-19T20:19:43;1.52;;;0.47;;
24143;SDS011;12307;50.828;6.080;2023-09-19T20:22:10;1.27;;;0.77;;
24143;SDS011;12307;50.828;6.080;2023-09-19T20:24:37;0.63;;;0.50;;
24143;SDS011;12307;50.828;6.080;2023-09-19T20:27:03;0.70;;;0.50;;
24143;SDS011;12307;50.828;6.080;2023-09-19T20:29:32;1.30;;;0.60;;
24143;SDS011;12307;50.828;6.080;2023-09-19T20:31:59;1.25;;;0.60;;
24143;SDS011;12307;50.828;6.080;2023-09-19T20:34:25;1.25;;;0.60;;
24143;SDS011;12307;50.828;6.080;2023-09-19T20:36:51;1.05;;;0.60;;
24143;SDS011;12307;50.828;6.080;2023-09-19T20:39:17;0.60;;;0.50;;
24143;SDS011;12307;50.828;6.080;2023-09-19T20:41:47;0.75;;;0.50;;
24143;SDS011;12307;50.828;6.080;2023-09-19T20:44:13;0.82;;;0.65;;
24143;SDS011;12307;50.828;6.080;2023-09-19T20:46:39;1.25;;;0.52;;
24143;SDS011;12307;50.828;6.080;2023-09-19T20:49:06;0.73;;;0.47;;
24143;SDS011;12307;50.828;6.080;2023-09-19T20:51:32;1.08;;;0.60;;
24143;SDS011;12307;50.828;6.080;2023-09-19T20:54:00;0.50;;;0.50;;
24143;SDS011;12307;50.828;6.080;2023-09-19T20:56:26;1.10;;;0.50;;
24143;SDS011;12307;50.828;6.080;2023-09-19T20:58:52;1.08;;;0.60;;
24143;SDS011;12307;50.828;6.080;2023-09-19T21:01:17;0.93;;;0.57;;
24143;SDS011;12307;50.828;6.080;2023-09-19T21:03:44;0.50;;;0.45;;
24143;SDS011;12307;50.828;6.080;2023-09-19T21:06:11;1.00;;;0.60;;
24143;SDS011;12307;50.828;6.080;2023-09-19T21:08:39;0.70;;;0.60;;
24143;SDS011;12307;50.828;6.080;2023-09-19T21:11:10;0.40;;;0.40;;
24143;SDS011;12307;50.828;6.080;2023-09-19T21:13:37;1.05;;;0.60;;
24143;SDS011;12307;50.828;6.080;2023-09-19T21:16:04;0.88;;;0.73;;
24143;SDS011;12307;50.828;6.080;2023-09-19T21:18:30;0.90;;;0.60;;
24143;SDS011;12307;50.828;6.080;2023-09-19T21:20:57;1.15;;;0.80;;
24143;SDS011;12307;50.828;6.080;2023-09-19T21:23:28;0.95;;;0.60;;
24143;SDS011;12307;50.828;6.080;2023-09-19T21:25:55;0.80;;;0.63;;
24143;SDS011;12307;50.828;6.080;2023-09-19T21:28:21;0.98;;;0.70;;
24143;SDS011;12307;50.828;6.080;2023-09-19T21:30:55;0.80;;;0.63;;
24143;SDS011;12307;50.828;6.080;2023-09-19T21:33:22;0.70;;;0.50;;
24143;SDS011;12307;50.828;6.080;2023-09-19T21:35:47;0.93;;;0.60;;
24143;SDS011;12307;50.828;6.080;2023-09-19T21:38:13;0.82;;;0.60;;
24143;SDS011;12307;50.828;6.080;2023-09-19T21:40:40;0.60;;;0.57;;
24143;SDS011;12307;50.828;6.080;2023-09-19T21:43:06;0.88;;;0.60;;
24143;SDS011;12307;50.828;6.080;2023-09-19T21:45:32;0.82;;;0.60;;
24143;SDS011;12307;50.828;6.080;2023-09-19T21:47:58;0.60;;;0.60;;
24143;SDS011;12307;50.828;6.080;2023-09-19T21:50:24;0.65;;;0.43;;
24143;SDS011;12307;50.828;6.080;2023-09-19T21:52:50;0.60;;;0.60;;